sensor_id;sensor_type;location;lat;lon;timestamp;P1;durP1;ratioP1;P2;durP2;ratioP2
33162;SDS011;29282;45.656;11.302;2024-02-26T00:02:15;2.80;;;2.13;;
33162;SDS011;29282;45.656;11.302;2024-02-26T00:04:40;2.72;;;2.05;;
33162;SDS011;29282;45.656;11.302;2024-02-26T00:07:06;3.17;;;1.98;;
33162;SDS011;29282;45.656;11.302;2024-02-26T00:09:31;2.67;;;2.20;;
33162;SDS011;29282;45.656;11.302;2024-02-26T00:12:00;2.38;;;2.03;;
33162;SDS011;29282;45.656;11.302;2024-02-26T00:14:26;3.17;;;2.13;;
33162;SDS011;29282;45.656;11.302;2024-02-26T00:16:52;3.45;;;2.30;;
33162;SDS011;29282;45.656;11.302;2024-02-26T00:19:17;2.92;;;2.05;;
33162;SDS011;29282;45.656;11.302;2024-02-26T00:21:42;2.47;;;2.05;;
33162;SDS011;29282;45.656;11.302;2024-02-26T00:24:08;2.45;;;2.10;;
33162;SDS011;29282;45.656;11.302;2024-02-26T00:26:34;2.47;;;2.00;;
33162;SDS011;29282;45.656;11.302;2024-02-26T00:28:59;2.28;;;1.85;;
33162;SDS011;29282;45.656;11.302;2024-02-26T00:31:24;3.28;;;2.20;;
33162;SDS011;29282;45.656;11.302;2024-02-26T00:33:50;2.55;;;1.98;;
33162;SDS011;29282;45.656;11.302;2024-02-26T00:36:15;2.17;;;1.88;;
33162;SDS011;29282;45.656;11.302;2024-02-26T00:38:41;2.47;;;1.80;;
33162;SDS011;29282;45.656;11.302;2024-02-26T00:41:08;2.05;;;1.85;;
33162;SDS011;29282;45.656;11.302;2024-02-26T00:43:33;2.10;;;1.90;;
33162;SDS011;29282;45.656;11.302;2024-02-26T00:45:59;2.10;;;1.83;;
33162;SDS011;29282;45.656;11.302;2024-02-26T00:48:24;2.40;;;2.17;;
33162;SDS011;29282;45.656;11.302;2024-02-26T00:50:51;2.92;;;2.05;;
33162;SDS011;29282;45.656;11.302;2024-02-26T00:53:16;2.97;;;1.80;;
33162;SDS011;29282;45.656;11.302;2024-02-26T00:55:42;2.47;;;1.80;;
33162;SDS011;29282;45.656;11.302;2024-02-26T00:58:08;2.17;;;1.98;;
33162;SDS011;29282;45.656;11.302;2024-02-26T01:00:37;2.75;;;1.70;;
33162;SDS011;29282;45.656;11.302;2024-02-26T01:03:03;2.80;;;2.13;;
33162;SDS011;29282;45.656;11.302;2024-02-26T01:05:29;3.53;;;2.00;;
33162;SDS011;29282;45.656;11.302;2024-02-26T01:07:55;2.20;;;1.85;;
33162;SDS011;29282;45.656;11.302;2024-02-26T01:10:20;1.75;;;1.65;;
33162;SDS011;29282;45.656;11.302;2024-02-26T01:12:46;2.45;;;2.10;;
33162;SDS011;29282;45.656;11.302;2024-02-26T01:15:12;1.95;;;1.73;;
33162;SDS011;29282;45.656;11.302;2024-02-26T01:17:38;2.30;;;2.03;;
33162;SDS011;29282;45.656;11.302;2024-02-26T01:20:04;2.58;;;2.10;;
33162;SDS011;29282;45.656;11.302;2024-02-26T01:22:30;1.90;;;1.70;;
33162;SDS011;29282;45.656;11.302;2024-02-26T01:24:55;2.42;;;1.80;;
33162;SDS011;29282;45.656;11.302;2024-02-26T01:27:22;2.55;;;1.77;;
33162;SDS011;29282;45.656;11.302;2024-02-26T01:29:51;2.65;;;1.70;;
33162;SDS011;29282;45.656;11.302;2024-02-26T01:32:17;2.17;;;1.92;;
33162;SDS011;29282;45.656;11.302;2024-02-26T01:34:43;1.90;;;1.80;;
33162;SDS011;29282;45.656;11.302;2024-02-26T01:37:08;3.47;;;1.88;;
33162;SDS011;29282;45.656;11.302;2024-02-26T01:39:34;2.92;;;1.80;;
33162;SDS011;29282;45.656;11.302;2024-02-26T01:41:59;3.58;;;1.95;;
33162;SDS011;29282;45.656;11.302;2024-02-26T01:44:26;2.10;;;1.90;;
33162;SDS011;29282;45.656;11.302;2024-02-26T01:46:51;1.70;;;1.60;;
33162;SDS011;29282;45.656;11.302;2024-02-26T01:49:21;2.78;;;1.70;;
33162;SDS011;29282;45.656;11.302;2024-02-26T01:51:46;2.30;;;1.80;;
33162;SDS011;29282;45.656;11.302;2024-02-26T01:54:12;1.85;;;1.67;;
33162;SDS011;29282;45.656;11.302;2024-02-26T01:56:38;1.77;;;1.67;;
33162;SDS011;29282;45.656;11.302;2024-02-26T01:59:05;2.17;;;1.80;;
33162;SDS011;29282;45.656;11.302;2024-02-26T02:01:33;2.03;;;1.65;;
33162;SDS011;29282;45.656;11.302;2024-02-26T02:04:00;2.53;;;2.28;;
33162;SDS011;29282;45.656;11.302;2024-02-26T02:06:27;2.25;;;1.85;;
33162;SDS011;29282;45.656;11.302;2024-02-26T02:08:56;2.78;;;2.00;;
33162;SDS011;29282;45.656;11.302;2024-02-26T02:11:22;2.55;;;1.70;;
33162;SDS011;29282;45.656;11.302;2024-02-26T02:13:47;2.15;;;1.95;;
33162;SDS011;29282;45.656;11.302;2024-02-26T02:16:13;1.98;;;1.73;;
33162;SDS011;29282;45.656;11.302;2024-02-26T02:18:39;2.28;;;1.80;;
33162;SDS011;29282;45.656;11.302;2024-02-26T02:21:04;1.83;;;1.67;;
33162;SDS011;29282;45.656;11.302;2024-02-26T02:23:30;2.13;;;1.77;;
33162;SDS011;29282;45.656;11.302;2024-02-26T02:25:56;1.50;;;1.40;;
33162;SDS011;29282;45.656;11.302;2024-02-26T02:28:22;2.20;;;1.80;;
33162;SDS011;29282;45.656;11.302;2024-02-26T02:30:50;1.83;;;1.63;;
33162;SDS011;29282;45.656;11.302;2024-02-26T02:33:15;1.88;;;1.60;;
33162;SDS011;29282;45.656;11.302;2024-02-26T02:35:41;1.75;;;1.65;;
33162;SDS011;29282;45.656;11.302;2024-02-26T02:38:06;1.85;;;1.70;;
33162;SDS011;29282;45.656;11.302;2024-02-26T02:40:32;1.75;;;1.60;;
33162;SDS011;29282;45.656;11.302;2024-02-26T02:42:57;1.75;;;1.60;;
33162;SDS011;29282;45.656;11.302;2024-02-26T02:45:23;1.92;;;1.70;;
33162;SDS011;29282;45.656;11.302;2024-02-26T02:47:49;1.75;;;1.63;;
33162;SDS011;29282;45.656;11.302;2024-02-26T02:50:14;1.58;;;1.48;;
33162;SDS011;29282;45.656;11.302;2024-02-26T02:52:40;1.83;;;1.45;;
33162;SDS011;29282;45.656;11.302;2024-02-26T02:55:05;2.03;;;1.80;;
33162;SDS011;29282;45.656;11.302;2024-02-26T02:57:34;1.60;;;1.50;;
33162;SDS011;29282;45.656;11.302;2024-02-26T03:00:06;1.95;;;1.42;;
33162;SDS011;29282;45.656;11.302;2024-02-26T03:02:34;1.95;;;1.75;;
33162;SDS011;29282;45.656;11.302;2024-02-26T03:05:03;1.50;;;1.40;;
33162;SDS011;29282;45.656;11.302;2024-02-26T03:07:29;1.70;;;1.60;;
33162;SDS011;29282;45.656;11.302;2024-02-26T03:09:55;1.77;;;1.63;;
33162;SDS011;29282;45.656;11.302;2024-02-26T03:12:20;2.05;;;1.58;;
33162;SDS011;29282;45.656;11.302;2024-02-26T03:14:46;2.13;;;1.75;;
33162;SDS011;29282;45.656;11.302;2024-02-26T03:17:11;2.60;;;1.83;;
33162;SDS011;29282;45.656;11.302;2024-02-26T03:19:37;1.90;;;1.40;;
33162;SDS011;29282;45.656;11.302;2024-02-26T03:22:03;1.88;;;1.65;;
33162;SDS011;29282;45.656;11.302;2024-02-26T03:24:28;2.58;;;1.63;;
33162;SDS011;29282;45.656;11.302;2024-02-26T03:26:54;1.52;;;1.42;;
33162;SDS011;29282;45.656;11.302;2024-02-26T03:29:19;1.38;;;1.27;;
33162;SDS011;29282;45.656;11.302;2024-02-26T03:31:45;1.60;;;1.40;;
33162;SDS011;29282;45.656;11.302;2024-02-26T03:34:10;1.80;;;1.63;;
33162;SDS011;29282;45.656;11.302;2024-02-26T03:36:37;2.10;;;1.75;;
33162;SDS011;29282;45.656;11.302;2024-02-26T03:41:44;1.70;;;1.60;;
33162;SDS011;29282;45.656;11.302;2024-02-26T03:44:10;1.70;;;1.60;;
33162;SDS011;29282;45.656;11.302;2024-02-26T03:46:35;1.90;;;1.80;;
33162;SDS011;29282;45.656;11.302;2024-02-26T03:49:01;2.20;;;1.77;;
33162;SDS011;29282;45.656;11.302;2024-02-26T03:51:26;1.85;;;1.70;;
33162;SDS011;29282;45.656;11.302;2024-02-26T03:53:56;1.77;;;1.48;;
33162;SDS011;29282;45.656;11.302;2024-02-26T03:56:23;1.60;;;1.50;;
33162;SDS011;29282;45.656;11.302;2024-02-26T03:58:48;2.15;;;1.65;;
33162;SDS011;29282;45.656;11.302;2024-02-26T04:01:13;1.70;;;1.60;;
33162;SDS011;29282;45.656;11.302;2024-02-26T04:03:39;1.48;;;1.20;;
33162;SDS011;29282;45.656;11.302;2024-02-26T04:06:08;2.03;;;1.70;;
33162;SDS011;29282;45.656;11.302;2024-02-26T04:08:34;1.40;;;1.30;;
33162;SDS011;29282;45.656;11.302;2024-02-26T04:10:59;1.63;;;1.50;;
33162;SDS011;29282;45.656;11.302;2024-02-26T04:13:25;1.60;;;1.40;;
33162;SDS011;29282;45.656;11.302;2024-02-26T04:15:50;1.55;;;1.45;;
33162;SDS011;29282;45.656;11.302;2024-02-26T04:18:16;1.55;;;1.38;;
33162;SDS011;29282;45.656;11.302;2024-02-26T04:20:41;2.08;;;1.50;;
33162;SDS011;29282;45.656;11.302;2024-02-26T04:23:07;1.73;;;1.42;;
33162;SDS011;29282;45.656;11.302;2024-02-26T04:25:33;1.90;;;1.60;;
33162;SDS011;29282;45.656;11.302;2024-02-26T04:27:58;1.88;;;1.55;;
33162;SDS011;29282;45.656;11.302;2024-02-26T04:30:24;1.60;;;1.50;;
33162;SDS011;29282;45.656;11.302;2024-02-26T04:32:49;1.70;;;1.60;;
33162;SDS011;29282;45.656;11.302;2024-02-26T04:35:15;2.38;;;1.60;;
33162;SDS011;29282;45.656;11.302;2024-02-26T04:37:40;1.55;;;1.42;;
33162;SDS011;29282;45.656;11.302;2024-02-26T04:40:06;1.55;;;1.45;;
33162;SDS011;29282;45.656;11.302;2024-02-26T04:42:33;1.60;;;1.45;;
33162;SDS011;29282;45.656;11.302;2024-02-26T04:44:58;1.55;;;1.42;;
33162;SDS011;29282;45.656;11.302;2024-02-26T04:47:24;2.58;;;1.83;;
33162;SDS011;29282;45.656;11.302;2024-02-26T04:49:49;1.80;;;1.55;;
33162;SDS011;29282;45.656;11.302;2024-02-26T04:52:15;1.40;;;1.30;;
33162;SDS011;29282;45.656;11.302;2024-02-26T04:54:44;1.77;;;1.63;;
33162;SDS011;29282;45.656;11.302;2024-02-26T04:57:09;1.60;;;1.50;;
33162;SDS011;29282;45.656;11.302;2024-02-26T04:59:35;1.70;;;1.50;;
33162;SDS011;29282;45.656;11.302;2024-02-26T05:02:00;1.50;;;1.40;;
33162;SDS011;29282;45.656;11.302;2024-02-26T05:04:26;1.92;;;1.63;;
33162;SDS011;29282;45.656;11.302;2024-02-26T05:06:51;1.42;;;1.33;;
33162;SDS011;29282;45.656;11.302;2024-02-26T05:09:18;1.40;;;1.30;;
33162;SDS011;29282;45.656;11.302;2024-02-26T05:11:44;1.50;;;1.40;;
33162;SDS011;29282;45.656;11.302;2024-02-26T05:14:09;1.73;;;1.40;;
33162;SDS011;29282;45.656;11.302;2024-02-26T05:16:35;2.30;;;1.67;;
33162;SDS011;29282;45.656;11.302;2024-02-26T05:19:01;1.30;;;1.20;;
33162;SDS011;29282;45.656;11.302;2024-02-26T05:21:26;1.48;;;1.38;;
33162;SDS011;29282;45.656;11.302;2024-02-26T05:23:52;1.35;;;1.20;;
33162;SDS011;29282;45.656;11.302;2024-02-26T05:26:23;1.80;;;1.42;;
33162;SDS011;29282;45.656;11.302;2024-02-26T05:28:49;2.00;;;1.50;;
33162;SDS011;29282;45.656;11.302;2024-02-26T05:31:15;1.85;;;1.70;;
33162;SDS011;29282;45.656;11.302;2024-02-26T05:33:41;1.30;;;1.20;;
33162;SDS011;29282;45.656;11.302;2024-02-26T05:36:06;1.58;;;1.48;;
33162;SDS011;29282;45.656;11.302;2024-02-26T05:38:32;1.80;;;1.20;;
33162;SDS011;29282;45.656;11.302;2024-02-26T05:41:00;1.70;;;1.60;;
33162;SDS011;29282;45.656;11.302;2024-02-26T05:43:26;1.30;;;1.20;;
33162;SDS011;29282;45.656;11.302;2024-02-26T05:45:52;1.88;;;1.63;;
33162;SDS011;29282;45.656;11.302;2024-02-26T05:48:18;1.92;;;1.50;;
33162;SDS011;29282;45.656;11.302;2024-02-26T05:50:46;2.08;;;1.50;;
33162;SDS011;29282;45.656;11.302;2024-02-26T05:53:15;1.38;;;1.27;;
33162;SDS011;29282;45.656;11.302;2024-02-26T05:55:40;1.67;;;1.58;;
33162;SDS011;29282;45.656;11.302;2024-02-26T05:58:06;1.33;;;1.23;;
33162;SDS011;29282;45.656;11.302;2024-02-26T06:00:31;1.30;;;1.20;;
33162;SDS011;29282;45.656;11.302;2024-02-26T06:02:57;1.40;;;1.30;;
33162;SDS011;29282;45.656;11.302;2024-02-26T06:05:23;2.22;;;1.33;;
33162;SDS011;29282;45.656;11.302;2024-02-26T06:07:48;1.90;;;1.33;;
33162;SDS011;29282;45.656;11.302;2024-02-26T06:10:14;1.83;;;1.50;;
33162;SDS011;29282;45.656;11.302;2024-02-26T06:12:40;1.17;;;1.10;;
33162;SDS011;29282;45.656;11.302;2024-02-26T06:15:05;2.05;;;1.60;;
33162;SDS011;29282;45.656;11.302;2024-02-26T06:17:31;1.38;;;1.25;;
33162;SDS011;29282;45.656;11.302;2024-02-26T06:19:57;1.52;;;1.40;;
33162;SDS011;29282;45.656;11.302;2024-02-26T06:22:25;2.97;;;1.30;;
33162;SDS011;29282;45.656;11.302;2024-02-26T06:24:51;1.48;;;1.35;;
33162;SDS011;29282;45.656;11.302;2024-02-26T06:27:17;1.60;;;1.50;;
33162;SDS011;29282;45.656;11.302;2024-02-26T06:29:43;1.27;;;1.17;;
33162;SDS011;29282;45.656;11.302;2024-02-26T06:32:08;1.30;;;1.20;;
33162;SDS011;29282;45.656;11.302;2024-02-26T06:34:34;1.38;;;1.27;;
33162;SDS011;29282;45.656;11.302;2024-02-26T06:37:00;1.30;;;1.20;;
33162;SDS011;29282;45.656;11.302;2024-02-26T06:39:25;1.65;;;1.40;;
33162;SDS011;29282;45.656;11.302;2024-02-26T06:41:53;1.40;;;1.30;;
33162;SDS011;29282;45.656;11.302;2024-02-26T06:44:25;1.40;;;1.30;;
33162;SDS011;29282;45.656;11.302;2024-02-26T06:46:51;1.50;;;1.40;;
33162;SDS011;29282;45.656;11.302;2024-02-26T06:49:16;1.20;;;1.10;;
33162;SDS011;29282;45.656;11.302;2024-02-26T06:51:42;1.77;;;1.48;;
33162;SDS011;29282;45.656;11.302;2024-02-26T06:54:07;1.67;;;1.58;;
33162;SDS011;29282;45.656;11.302;2024-02-26T06:56:36;1.70;;;1.40;;
33162;SDS011;29282;45.656;11.302;2024-02-26T06:59:01;1.30;;;1.20;;
33162;SDS011;29282;45.656;11.302;2024-02-26T07:01:27;1.38;;;1.20;;
33162;SDS011;29282;45.656;11.302;2024-02-26T07:03:52;1.83;;;1.35;;
33162;SDS011;29282;45.656;11.302;2024-02-26T07:06:18;1.48;;;1.38;;
33162;SDS011;29282;45.656;11.302;2024-02-26T07:08:43;1.20;;;1.10;;
33162;SDS011;29282;45.656;11.302;2024-02-26T07:11:10;4.57;;;1.60;;
33162;SDS011;29282;45.656;11.302;2024-02-26T07:13:36;2.33;;;1.50;;
33162;SDS011;29282;45.656;11.302;2024-02-26T07:16:01;4.68;;;1.35;;
33162;SDS011;29282;45.656;11.302;2024-02-26T07:18:27;1.30;;;1.20;;
33162;SDS011;29282;45.656;11.302;2024-02-26T07:20:56;5.97;;;1.30;;
33162;SDS011;29282;45.656;11.302;2024-02-26T07:23:24;2.65;;;1.70;;
33162;SDS011;29282;45.656;11.302;2024-02-26T07:25:50;3.58;;;1.60;;
33162;SDS011;29282;45.656;11.302;2024-02-26T07:28:17;1.55;;;1.33;;
33162;SDS011;29282;45.656;11.302;2024-02-26T07:30:43;4.60;;;1.33;;
33162;SDS011;29282;45.656;11.302;2024-02-26T07:33:09;3.10;;;1.30;;
33162;SDS011;29282;45.656;11.302;2024-02-26T07:35:34;4.15;;;1.33;;
33162;SDS011;29282;45.656;11.302;2024-02-26T07:38:01;2.40;;;1.30;;
33162;SDS011;29282;45.656;11.302;2024-02-26T07:40:26;1.52;;;1.40;;
33162;SDS011;29282;45.656;11.302;2024-02-26T07:42:52;11.05;;;2.45;;
33162;SDS011;29282;45.656;11.302;2024-02-26T07:45:17;14.20;;;2.63;;
33162;SDS011;29282;45.656;11.302;2024-02-26T07:47:46;22.33;;;2.92;;
33162;SDS011;29282;45.656;11.302;2024-02-26T07:50:12;19.52;;;2.65;;
33162;SDS011;29282;45.656;11.302;2024-02-26T07:52:38;14.20;;;2.65;;
33162;SDS011;29282;45.656;11.302;2024-02-26T07:55:03;9.77;;;2.78;;
33162;SDS011;29282;45.656;11.302;2024-02-26T07:57:30;28.30;;;2.70;;
33162;SDS011;29282;45.656;11.302;2024-02-26T07:59:55;7.78;;;2.08;;
33162;SDS011;29282;45.656;11.302;2024-02-26T08:02:21;8.10;;;2.38;;
33162;SDS011;29282;45.656;11.302;2024-02-26T08:04:47;8.18;;;2.38;;
33162;SDS011;29282;45.656;11.302;2024-02-26T08:07:12;14.50;;;2.75;;
33162;SDS011;29282;45.656;11.302;2024-02-26T08:09:38;7.03;;;2.33;;
33162;SDS011;29282;45.656;11.302;2024-02-26T08:12:04;7.93;;;2.70;;
33162;SDS011;29282;45.656;11.302;2024-02-26T08:14:30;8.82;;;2.55;;
33162;SDS011;29282;45.656;11.302;2024-02-26T08:16:57;18.08;;;2.70;;
33162;SDS011;29282;45.656;11.302;2024-02-26T08:19:23;5.38;;;2.22;;
33162;SDS011;29282;45.656;11.302;2024-02-26T08:21:49;12.80;;;2.65;;
33162;SDS011;29282;45.656;11.302;2024-02-26T08:24:15;12.20;;;2.60;;
33162;SDS011;29282;45.656;11.302;2024-02-26T08:26:40;8.70;;;2.70;;
33162;SDS011;29282;45.656;11.302;2024-02-26T08:29:06;8.80;;;2.88;;
33162;SDS011;29282;45.656;11.302;2024-02-26T08:31:31;10.05;;;2.38;;
33162;SDS011;29282;45.656;11.302;2024-02-26T08:33:57;7.57;;;2.75;;
33162;SDS011;29282;45.656;11.302;2024-02-26T08:36:23;10.80;;;3.20;;
33162;SDS011;29282;45.656;11.302;2024-02-26T08:38:49;11.07;;;3.35;;
33162;SDS011;29282;45.656;11.302;2024-02-26T08:41:14;9.75;;;2.65;;
33162;SDS011;29282;45.656;11.302;2024-02-26T08:43:40;12.80;;;3.30;;
33162;SDS011;29282;45.656;11.302;2024-02-26T08:46:08;5.78;;;2.65;;
33162;SDS011;29282;45.656;11.302;2024-02-26T08:48:35;6.07;;;2.75;;
33162;SDS011;29282;45.656;11.302;2024-02-26T08:51:04;12.77;;;3.35;;
33162;SDS011;29282;45.656;11.302;2024-02-26T08:53:33;12.07;;;3.03;;
33162;SDS011;29282;45.656;11.302;2024-02-26T08:55:58;11.02;;;3.38;;
33162;SDS011;29282;45.656;11.302;2024-02-26T08:58:24;9.57;;;3.00;;
33162;SDS011;29282;45.656;11.302;2024-02-26T09:00:49;7.10;;;3.35;;
33162;SDS011;29282;45.656;11.302;2024-02-26T09:03:15;10.52;;;3.17;;
33162;SDS011;29282;45.656;11.302;2024-02-26T09:05:41;10.02;;;3.65;;
33162;SDS011;29282;45.656;11.302;2024-02-26T09:08:06;8.45;;;3.15;;
33162;SDS011;29282;45.656;11.302;2024-02-26T09:10:32;7.80;;;3.63;;
33162;SDS011;29282;45.656;11.302;2024-02-26T09:12:58;8.75;;;3.38;;
33162;SDS011;29282;45.656;11.302;2024-02-26T09:15:23;11.20;;;3.60;;
33162;SDS011;29282;45.656;11.302;2024-02-26T09:17:49;7.43;;;3.40;;
33162;SDS011;29282;45.656;11.302;2024-02-26T09:20:15;6.82;;;2.92;;
33162;SDS011;29282;45.656;11.302;2024-02-26T09:22:45;10.50;;;3.15;;
33162;SDS011;29282;45.656;11.302;2024-02-26T09:25:11;8.75;;;3.58;;
33162;SDS011;29282;45.656;11.302;2024-02-26T09:27:36;8.63;;;3.47;;
33162;SDS011;29282;45.656;11.302;2024-02-26T09:30:02;6.82;;;3.40;;
33162;SDS011;29282;45.656;11.302;2024-02-26T09:32:28;10.52;;;3.85;;
33162;SDS011;29282;45.656;11.302;2024-02-26T09:34:53;13.73;;;3.33;;
33162;SDS011;29282;45.656;11.302;2024-02-26T09:37:22;6.57;;;3.75;;
33162;SDS011;29282;45.656;11.302;2024-02-26T09:39:47;9.30;;;3.00;;
33162;SDS011;29282;45.656;11.302;2024-02-26T09:42:15;8.68;;;3.53;;
33162;SDS011;29282;45.656;11.302;2024-02-26T09:44:44;10.27;;;3.55;;
33162;SDS011;29282;45.656;11.302;2024-02-26T09:47:10;11.52;;;3.55;;
33162;SDS011;29282;45.656;11.302;2024-02-26T09:49:38;13.73;;;3.60;;
33162;SDS011;29282;45.656;11.302;2024-02-26T09:52:06;10.73;;;3.20;;
33162;SDS011;29282;45.656;11.302;2024-02-26T09:54:34;6.68;;;3.30;;
33162;SDS011;29282;45.656;11.302;2024-02-26T09:57:02;10.90;;;3.35;;
33162;SDS011;29282;45.656;11.302;2024-02-26T09:59:39;9.68;;;3.47;;
33162;SDS011;29282;45.656;11.302;2024-02-26T10:02:14;7.05;;;2.83;;
33162;SDS011;29282;45.656;11.302;2024-02-26T10:04:40;4.82;;;3.17;;
33162;SDS011;29282;45.656;11.302;2024-02-26T10:07:09;6.15;;;3.03;;
33162;SDS011;29282;45.656;11.302;2024-02-26T10:09:36;6.05;;;3.10;;
33162;SDS011;29282;45.656;11.302;2024-02-26T10:12:02;11.48;;;2.95;;
33162;SDS011;29282;45.656;11.302;2024-02-26T10:14:32;16.88;;;4.00;;
33162;SDS011;29282;45.656;11.302;2024-02-26T10:16:58;10.70;;;3.28;;
33162;SDS011;29282;45.656;11.302;2024-02-26T10:19:26;15.32;;;3.33;;
33162;SDS011;29282;45.656;11.302;2024-02-26T10:22:02;18.65;;;3.53;;
33162;SDS011;29282;45.656;11.302;2024-02-26T10:24:29;8.25;;;3.10;;
33162;SDS011;29282;45.656;11.302;2024-02-26T10:26:55;14.05;;;3.83;;
33162;SDS011;29282;45.656;11.302;2024-02-26T10:29:24;9.73;;;3.65;;
33162;SDS011;29282;45.656;11.302;2024-02-26T10:31:51;8.00;;;3.10;;
33162;SDS011;29282;45.656;11.302;2024-02-26T10:34:17;8.05;;;3.42;;
33162;SDS011;29282;45.656;11.302;2024-02-26T10:36:43;8.98;;;2.70;;
33162;SDS011;29282;45.656;11.302;2024-02-26T10:39:09;8.30;;;2.97;;
33162;SDS011;29282;45.656;11.302;2024-02-26T10:41:37;12.80;;;2.83;;
33162;SDS011;29282;45.656;11.302;2024-02-26T10:44:03;9.40;;;3.08;;
33162;SDS011;29282;45.656;11.302;2024-02-26T10:46:33;7.55;;;3.00;;
33162;SDS011;29282;45.656;11.302;2024-02-26T10:48:59;6.28;;;2.80;;
33162;SDS011;29282;45.656;11.302;2024-02-26T10:51:26;10.05;;;2.78;;
33162;SDS011;29282;45.656;11.302;2024-02-26T10:53:56;10.93;;;2.70;;
33162;SDS011;29282;45.656;11.302;2024-02-26T10:56:27;8.95;;;2.90;;
33162;SDS011;29282;45.656;11.302;2024-02-26T10:58:55;7.55;;;3.10;;
33162;SDS011;29282;45.656;11.302;2024-02-26T11:01:22;5.57;;;2.42;;
33162;SDS011;29282;45.656;11.302;2024-02-26T11:03:50;7.20;;;2.65;;
33162;SDS011;29282;45.656;11.302;2024-02-26T11:06:20;6.18;;;2.65;;
33162;SDS011;29282;45.656;11.302;2024-02-26T11:08:47;7.25;;;2.38;;
33162;SDS011;29282;45.656;11.302;2024-02-26T11:11:14;5.45;;;2.75;;
33162;SDS011;29282;45.656;11.302;2024-02-26T11:13:42;4.10;;;2.28;;
33162;SDS011;29282;45.656;11.302;2024-02-26T11:16:16;6.03;;;2.72;;
33162;SDS011;29282;45.656;11.302;2024-02-26T11:18:43;6.63;;;2.42;;
33162;SDS011;29282;45.656;11.302;2024-02-26T11:21:13;7.72;;;2.53;;
33162;SDS011;29282;45.656;11.302;2024-02-26T11:23:41;4.70;;;2.28;;
33162;SDS011;29282;45.656;11.302;2024-02-26T11:26:11;4.53;;;2.50;;
33162;SDS011;29282;45.656;11.302;2024-02-26T11:28:39;4.10;;;1.95;;
33162;SDS011;29282;45.656;11.302;2024-02-26T11:31:06;4.75;;;1.80;;
33162;SDS011;29282;45.656;11.302;2024-02-26T11:33:33;6.10;;;2.30;;
33162;SDS011;29282;45.656;11.302;2024-02-26T11:36:01;4.70;;;2.22;;
33162;SDS011;29282;45.656;11.302;2024-02-26T11:38:27;4.05;;;2.40;;
33162;SDS011;29282;45.656;11.302;2024-02-26T11:40:53;4.40;;;2.30;;
33162;SDS011;29282;45.656;11.302;2024-02-26T11:43:23;5.18;;;2.20;;
33162;SDS011;29282;45.656;11.302;2024-02-26T11:46:24;4.82;;;2.28;;
33162;SDS011;29282;45.656;11.302;2024-02-26T11:51:52;3.58;;;2.20;;
33162;SDS011;29282;45.656;11.302;2024-02-26T11:57:20;3.15;;;2.15;;
33162;SDS011;29282;45.656;11.302;2024-02-26T11:59:46;3.55;;;2.15;;
33162;SDS011;29282;45.656;11.302;2024-02-26T12:02:19;2.92;;;2.13;;
33162;SDS011;29282;45.656;11.302;2024-02-26T12:05:14;3.47;;;1.92;;
33162;SDS011;29282;45.656;11.302;2024-02-26T12:07:46;3.88;;;2.03;;
33162;SDS011;29282;45.656;11.302;2024-02-26T12:13:05;4.85;;;2.00;;
33162;SDS011;29282;45.656;11.302;2024-02-26T12:15:33;4.72;;;1.77;;
33162;SDS011;29282;45.656;11.302;2024-02-26T12:18:21;5.05;;;2.03;;
33162;SDS011;29282;45.656;11.302;2024-02-26T12:21:01;2.40;;;1.60;;
33162;SDS011;29282;45.656;11.302;2024-02-26T12:23:27;3.65;;;2.03;;
33162;SDS011;29282;45.656;11.302;2024-02-26T12:25:53;3.47;;;1.70;;
33162;SDS011;29282;45.656;11.302;2024-02-26T12:28:27;2.58;;;1.67;;
33162;SDS011;29282;45.656;11.302;2024-02-26T12:30:55;3.65;;;1.92;;
33162;SDS011;29282;45.656;11.302;2024-02-26T12:33:24;4.40;;;1.90;;
33162;SDS011;29282;45.656;11.302;2024-02-26T12:35:51;2.55;;;2.00;;
33162;SDS011;29282;45.656;11.302;2024-02-26T12:38:17;3.67;;;2.10;;
33162;SDS011;29282;45.656;11.302;2024-02-26T12:40:43;3.67;;;1.83;;
33162;SDS011;29282;45.656;11.302;2024-02-26T12:43:09;1.90;;;1.58;;
33162;SDS011;29282;45.656;11.302;2024-02-26T12:45:42;2.08;;;1.60;;
33162;SDS011;29282;45.656;11.302;2024-02-26T12:48:11;2.30;;;1.70;;
33162;SDS011;29282;45.656;11.302;2024-02-26T12:50:37;3.25;;;1.83;;
33162;SDS011;29282;45.656;11.302;2024-02-26T12:53:03;2.30;;;1.67;;
33162;SDS011;29282;45.656;11.302;2024-02-26T12:55:28;2.80;;;1.50;;
33162;SDS011;29282;45.656;11.302;2024-02-26T12:57:56;2.40;;;1.80;;
33162;SDS011;29282;45.656;11.302;2024-02-26T13:00:25;3.83;;;1.92;;
33162;SDS011;29282;45.656;11.302;2024-02-26T13:02:54;1.80;;;1.60;;
33162;SDS011;29282;45.656;11.302;2024-02-26T13:05:21;1.85;;;1.63;;
33162;SDS011;29282;45.656;11.302;2024-02-26T13:07:50;1.73;;;1.42;;
33162;SDS011;29282;45.656;11.302;2024-02-26T13:10:18;2.63;;;1.70;;
33162;SDS011;29282;45.656;11.302;2024-02-26T13:12:45;3.97;;;1.75;;
33162;SDS011;29282;45.656;11.302;2024-02-26T13:15:16;2.97;;;1.90;;
33162;SDS011;29282;45.656;11.302;2024-02-26T13:17:43;4.47;;;2.05;;
33162;SDS011;29282;45.656;11.302;2024-02-26T13:20:09;3.00;;;1.80;;
33162;SDS011;29282;45.656;11.302;2024-02-26T13:22:36;2.05;;;1.65;;
33162;SDS011;29282;45.656;11.302;2024-02-26T13:25:07;3.33;;;1.65;;
33162;SDS011;29282;45.656;11.302;2024-02-26T13:27:33;2.97;;;1.50;;
33162;SDS011;29282;45.656;11.302;2024-02-26T13:30:02;4.13;;;1.73;;
33162;SDS011;29282;45.656;11.302;2024-02-26T13:32:31;1.52;;;1.42;;
33162;SDS011;29282;45.656;11.302;2024-02-26T13:37:34;15.20;;;3.10;;
33162;SDS011;29282;45.656;11.302;2024-02-26T13:40:00;12.82;;;2.75;;
33162;SDS011;29282;45.656;11.302;2024-02-26T13:42:29;5.80;;;2.67;;
33162;SDS011;29282;45.656;11.302;2024-02-26T13:44:54;5.93;;;2.67;;
33162;SDS011;29282;45.656;11.302;2024-02-26T13:47:20;5.47;;;2.30;;
33162;SDS011;29282;45.656;11.302;2024-02-26T13:49:46;3.67;;;2.30;;
33162;SDS011;29282;45.656;11.302;2024-02-26T13:52:11;10.20;;;2.55;;
33162;SDS011;29282;45.656;11.302;2024-02-26T13:54:37;11.18;;;2.85;;
33162;SDS011;29282;45.656;11.302;2024-02-26T13:57:04;5.88;;;2.50;;
33162;SDS011;29282;45.656;11.302;2024-02-26T13:59:29;6.55;;;2.20;;
33162;SDS011;29282;45.656;11.302;2024-02-26T14:01:55;3.35;;;2.40;;
33162;SDS011;29282;45.656;11.302;2024-02-26T14:04:20;5.35;;;2.38;;
33162;SDS011;29282;45.656;11.302;2024-02-26T14:06:48;4.53;;;2.33;;
33162;SDS011;29282;45.656;11.302;2024-02-26T14:09:13;6.18;;;2.17;;
33162;SDS011;29282;45.656;11.302;2024-02-26T14:11:45;4.68;;;2.67;;
33162;SDS011;29282;45.656;11.302;2024-02-26T14:14:11;5.53;;;1.95;;
33162;SDS011;29282;45.656;11.302;2024-02-26T14:16:40;4.35;;;1.90;;
33162;SDS011;29282;45.656;11.302;2024-02-26T14:19:08;5.57;;;2.50;;
33162;SDS011;29282;45.656;11.302;2024-02-26T14:21:34;6.20;;;2.25;;
33162;SDS011;29282;45.656;11.302;2024-02-26T14:24:02;5.22;;;1.95;;
33162;SDS011;29282;45.656;11.302;2024-02-26T14:26:27;4.47;;;2.10;;
33162;SDS011;29282;45.656;11.302;2024-02-26T14:28:54;3.28;;;2.00;;
33162;SDS011;29282;45.656;11.302;2024-02-26T14:31:19;4.30;;;2.00;;
33162;SDS011;29282;45.656;11.302;2024-02-26T14:33:45;4.25;;;1.92;;
33162;SDS011;29282;45.656;11.302;2024-02-26T14:36:11;3.22;;;2.10;;
33162;SDS011;29282;45.656;11.302;2024-02-26T14:38:40;4.65;;;2.92;;
33162;SDS011;29282;45.656;11.302;2024-02-26T14:41:06;6.95;;;2.55;;
33162;SDS011;29282;45.656;11.302;2024-02-26T14:43:31;6.00;;;2.22;;
33162;SDS011;29282;45.656;11.302;2024-02-26T14:45:57;6.22;;;2.55;;